Time;durP1;ratioP1;P1;durP2;ratioP2;P2;SDS_P1;SDS_P2;PMS_P1;PMS_P2;Temp;Humidity;BMP_temperature;BMP_pressure;BME280_temperature;BME280_humidity;BME280_pressure;Samples;Min_cycle;Max_cycle;Signal;HPM_P1;HPM_P2
2021/08/01 00:01:01;;;;;;;5.63;1.67;;;;;;;;;;5052342;28;20028;-53
2021/08/01 00:03:27;;;;;;;6.57;1.73;;;;;;;;;;5053057;28;20021;-53
2021/08/01 00:05:54;;;;;;;2.38;1.60;;;;;;;;;;5052605;28;20353;-53
2021/08/01 00:08:20;;;;;;;4.57;1.70;;;;;;;;;;5053035;28;20032;-53
2021/08/01 00:10:47;;;;;;;5.95;1.85;;;;;;;;;;5052330;28;20028;-53
2021/08/01 00:13:13;;;;;;;4.15;1.80;;;;;;;;;;5052814;28;20029;-53
2021/08/01 00:15:39;;;;;;;5.30;1.63;;;;;;;;;;5053310;28;20037;-53
2021/08/01 00:18:05;;;;;;;2.22;1.63;;;;;;;;;;5052339;28;20064;-53
2021/08/01 00:20:31;;;;;;;4.40;1.70;;;;;;;;;;5052169;28;20086;-53
2021/08/01 00:22:57;;;;;;;5.43;1.75;;;;;;;;;;5051688;28;20429;-53
2021/08/01 00:25:23;;;;;;;2.45;2.05;;;;;;;;;;5053088;28;20021;-53
2021/08/01 00:27:49;;;;;;;2.17;1.67;;;;;;;;;;5052480;28;20521;-53
2021/08/01 00:30:16;;;;;;;8.00;2.03;;;;;;;;;;5052528;28;20044;-52
2021/08/01 00:32:43;;;;;;;4.57;2.25;;;;;;;;;;5051729;28;20124;-53
2021/08/01 00:35:09;;;;;;;3.65;2.33;;;;;;;;;;5052640;28;20032;-53
2021/08/01 00:37:35;;;;;;;2.30;1.65;;;;;;;;;;5055845;28;20410;-52
2021/08/01 00:40:01;;;;;;;7.05;2.53;;;;;;;;;;5056594;28;20455;-53
2021/08/01 00:42:27;;;;;;;3.03;1.63;;;;;;;;;;5056410;28;20112;-53
2021/08/01 00:44:53;;;;;;;3.72;1.60;;;;;;;;;;5056162;28;20111;-53
2021/08/01 00:47:20;;;;;;;7.60;2.67;;;;;;;;;;5056371;28;20021;-53
2021/08/01 00:49:46;;;;;;;7.53;2.00;;;;;;;;;;5056212;28;20032;-53
2021/08/01 00:52:12;;;;;;;4.13;1.80;;;;;;;;;;5055891;28;20021;-53
2021/08/01 00:54:38;;;;;;;2.97;1.73;;;;;;;;;;5056190;28;20400;-53
2021/08/01 00:57:05;;;;;;;2.65;1.70;;;;;;;;;;5056689;28;20108;-53
2021/08/01 00:59:32;;;;;;;1.92;1.30;;;;;;;;;;5055801;28;20040;-53
2021/08/01 01:02:00;;;;;;;3.50;2.17;;;;;;;;;;5055641;28;20033;-53
2021/08/01 01:04:34;;;;;;;1.48;1.30;;;;;;;;;;5055910;28;20036;-53
2021/08/01 01:07:00;;;;;;;7.43;1.70;;;;;;;;;;5056397;28;20036;-53
2021/08/01 01:09:55;;;;;;;2.60;1.67;;;;;;;;;;5056126;28;20028;-53
2021/08/01 01:12:23;;;;;;;3.13;1.70;;;;;;;;;;5054597;28;20055;-53
2021/08/01 01:14:50;;;;;;;4.70;1.77;;;;;;;;;;5055720;28;20028;-53
2021/08/01 01:17:20;;;;;;;15.15;2.30;;;;;;;;;;5056272;28;20405;-53
2021/08/01 01:19:46;;;;;;;3.58;1.98;;;;;;;;;;5055756;28;20344;-53
2021/08/01 01:22:30;;;;;;;5.13;1.92;;;;;;;;;;5054865;28;20090;-53
2021/08/01 01:24:58;;;;;;;3.67;1.67;;;;;;;;;;5055824;28;20032;-53
2021/08/01 01:27:38;;;;;;;3.80;1.70;;;;;;;;;;5055411;28;20048;-53
2021/08/01 01:30:05;;;;;;;4.30;1.80;;;;;;;;;;5055342;28;20499;-53
2021/08/01 01:32:49;;;;;;;5.40;1.90;;;;;;;;;;5055406;28;20127;-53
2021/08/01 01:35:19;;;;;;;3.05;1.80;;;;;;;;;;5055490;28;20472;-53
2021/08/01 01:37:46;;;;;;;4.57;1.70;;;;;;;;;;5055430;28;20037;-53
2021/08/01 01:40:13;;;;;;;3.58;1.95;;;;;;;;;;5055836;28;20061;-53
2021/08/01 01:42:41;;;;;;;2.63;1.63;;;;;;;;;;5066388;28;20025;-53
2021/08/01 01:45:07;;;;;;;2.90;1.80;;;;;;;;;;5075583;28;20036;-52
2021/08/01 01:47:33;;;;;;;3.22;1.65;;;;;;;;;;5074965;28;20509;-52
2021/08/01 01:50:00;;;;;;;3.22;1.63;;;;;;;;;;5075072;28;20028;-53
2021/08/01 01:52:27;;;;;;;3.22;1.75;;;;;;;;;;5074018;28;20146;-52
2021/08/01 01:54:53;;;;;;;4.00;1.83;;;;;;;;;;5075491;28;20020;-53
2021/08/01 01:57:20;;;;;;;5.50;1.75;;;;;;;;;;5075767;28;20298;-53
2021/08/01 01:59:46;;;;;;;7.10;1.90;;;;;;;;;;5074824;28;20039;-53
2021/08/01 02:02:12;;;;;;;3.17;1.92;;;;;;;;;;5074279;28;20025;-53
2021/08/01 02:04:53;;;;;;;5.18;2.08;;;;;;;;;;5075483;28;20495;-53
2021/08/01 02:07:20;;;;;;;5.68;1.60;;;;;;;;;;5068851;28;20073;-53
2021/08/01 02:09:59;;;;;;;5.03;1.92;;;;;;;;;;5075312;28;20029;-53
2021/08/01 02:12:29;;;;;;;2.38;1.60;;;;;;;;;;5074303;28;20028;-52
2021/08/01 02:14:55;;;;;;;2.40;1.80;;;;;;;;;;5074948;28;20021;-53
2021/08/01 02:17:24;;;;;;;4.30;1.63;;;;;;;;;;5074435;28;20040;-53
2021/08/01 02:19:50;;;;;;;8.95;2.25;;;;;;;;;;5074685;28;20125;-52
2021/08/01 02:22:18;;;;;;;2.63;1.55;;;;;;;;;;5073985;28;20444;-52
2021/08/01 02:24:45;;;;;;;8.77;2.08;;;;;;;;;;5074075;28;20190;-52
2021/08/01 02:27:11;;;;;;;3.38;1.60;;;;;;;;;;5074314;28;20081;-53
2021/08/01 02:29:38;;;;;;;3.90;1.60;;;;;;;;;;5074429;28;20024;-52
2021/08/01 02:32:04;;;;;;;5.35;1.92;;;;;;;;;;5073139;28;20119;-50
2021/08/01 02:34:31;;;;;;;3.20;2.25;;;;;;;;;;5069916;28;20450;-52
2021/08/01 02:36:57;;;;;;;5.55;2.13;;;;;;;;;;5054511;28;20079;-52
2021/08/01 02:39:24;;;;;;;2.58;1.65;;;;;;;;;;5057818;28;20465;-52
2021/08/01 02:41:52;;;;;;;11.65;2.15;;;;;;;;;;5051254;28;20066;-53
2021/08/01 02:44:20;;;;;;;1.95;1.63;;;;;;;;;;5052595;28;20041;-52
2021/08/01 02:46:46;;;;;;;1.73;1.30;;;;;;;;;;5051996;28;20382;-53
2021/08/01 02:49:16;;;;;;;5.13;2.03;;;;;;;;;;5052117;28;20025;-53
2021/08/01 02:51:44;;;;;;;4.90;1.80;;;;;;;;;;5051251;28;20396;-52
2021/08/01 02:54:10;;;;;;;9.48;2.35;;;;;;;;;;5052337;28;20033;-53
2021/08/01 02:56:37;;;;;;;2.58;1.70;;;;;;;;;;5052585;28;20028;-52
2021/08/01 02:59:04;;;;;;;6.05;1.90;;;;;;;;;;5053851;28;20048;-52
2021/08/01 03:01:30;;;;;;;8.43;1.95;;;;;;;;;;5051606;28;20135;-53
2021/08/01 03:03:57;;;;;;;5.50;1.73;;;;;;;;;;5054012;28;20032;-53
2021/08/01 03:06:23;;;;;;;6.20;2.10;;;;;;;;;;5054392;28;20079;-52
2021/08/01 03:08:49;;;;;;;2.40;1.50;;;;;;;;;;5053887;28;20350;-52
2021/08/01 03:11:24;;;;;;;3.47;1.70;;;;;;;;;;5052933;28;20448;-53
2021/08/01 03:13:50;;;;;;;4.20;1.40;;;;;;;;;;5053302;28;20021;-53
2021/08/01 03:16:16;;;;;;;4.38;2.03;;;;;;;;;;5053737;28;20351;-52
2021/08/01 03:18:42;;;;;;;4.60;2.10;;;;;;;;;;5053859;28;20073;-53
2021/08/01 03:21:08;;;;;;;5.10;1.45;;;;;;;;;;5052862;28;20117;-53
2021/08/01 03:23:34;;;;;;;2.17;1.33;;;;;;;;;;5053784;28;20035;-52
2021/08/01 03:26:00;;;;;;;6.38;2.67;;;;;;;;;;5053668;28;20564;-52
2021/08/01 03:28:26;;;;;;;2.97;1.80;;;;;;;;;;5053053;28;20032;-53
2021/08/01 03:30:52;;;;;;;4.80;1.60;;;;;;;;;;5052901;28;20025;-53
2021/08/01 03:33:18;;;;;;;2.67;1.70;;;;;;;;;;5053386;28;20447;-52
2021/08/01 03:35:44;;;;;;;2.83;1.75;;;;;;;;;;5053284;28;20021;-53
2021/08/01 03:38:10;;;;;;;8.45;1.95;;;;;;;;;;5053176;28;20477;-53
2021/08/01 03:40:36;;;;;;;3.58;1.85;;;;;;;;;;5052745;28;20314;-52
2021/08/01 03:43:02;;;;;;;4.90;2.88;;;;;;;;;;5052892;28;20508;-53
2021/08/01 03:45:28;;;;;;;2.97;1.60;;;;;;;;;;5052901;28;20064;-53
2021/08/01 03:47:54;;;;;;;3.97;1.88;;;;;;;;;;5053353;28;20053;-53
2021/08/01 03:50:20;;;;;;;5.03;1.60;;;;;;;;;;5053374;28;20478;-53
2021/08/01 03:52:46;;;;;;;6.07;1.83;;;;;;;;;;5052215;28;20031;-53
2021/08/01 03:55:12;;;;;;;2.47;1.77;;;;;;;;;;5053308;28;20112;-52
2021/08/01 03:57:38;;;;;;;3.15;2.15;;;;;;;;;;5052255;28;20112;-52
2021/08/01 04:00:06;;;;;;;2.67;1.80;;;;;;;;;;5053113;28;20049;-53
2021/08/01 04:02:34;;;;;;;3.42;2.00;;;;;;;;;;5052265;28;20021;-52
2021/08/01 04:05:00;;;;;;;1.75;1.40;;;;;;;;;;5052914;28;20070;-52
2021/08/01 04:07:26;;;;;;;1.73;1.50;;;;;;;;;;5052943;28;20095;-52
2021/08/01 04:09:52;;;;;;;4.47;1.77;;;;;;;;;;5053113;28;20025;-52
2021/08/01 04:12:19;;;;;;;1.45;1.00;;;;;;;;;;5051690;28;20162;-52
2021/08/01 04:14:45;;;;;;;1.95;1.52;;;;;;;;;;5053193;28;20029;-52
2021/08/01 04:17:11;;;;;;;2.75;1.50;;;;;;;;;;5052507;28;20081;-52
2021/08/01 04:19:37;;;;;;;1.73;1.23;;;;;;;;;;5052785;28;20040;-53
2021/08/01 04:22:03;;;;;;;4.85;1.23;;;;;;;;;;5051729;28;20028;-53
2021/08/01 04:24:29;;;;;;;1.33;1.23;;;;;;;;;;5053265;28;20504;-52
2021/08/01 04:26:56;;;;;;;1.45;1.30;;;;;;;;;;5052303;28;20028;-52
2021/08/01 04:29:22;;;;;;;1.60;1.10;;;;;;;;;;5052861;28;20111;-52
2021/08/01 04:31:48;;;;;;;1.92;1.50;;;;;;;;;;5051899;28;20324;-52
2021/08/01 04:34:16;;;;;;;7.43;1.77;;;;;;;;;;5050326;28;20032;-53
2021/08/01 04:36:43;;;;;;;4.85;1.42;;;;;;;;;;5052799;28;20048;-53
2021/08/01 04:39:09;;;;;;;2.10;1.30;;;;;;;;;;5052268;28;20083;-52
2021/08/01 04:41:35;;;;;;;2.55;1.30;;;;;;;;;;5052065;28;20025;-52
2021/08/01 04:44:01;;;;;;;2.38;1.50;;;;;;;;;;5051912;28;20024;-52
2021/08/01 04:46:27;;;;;;;2.03;1.27;;;;;;;;;;5052937;28;20017;-52
2021/08/01 04:48:53;;;;;;;2.80;1.20;;;;;;;;;;5052498;28;20500;-52
2021/08/01 04:51:19;;;;;;;2.13;1.65;;;;;;;;;;5051642;28;20025;-52
2021/08/01 04:53:45;;;;;;;2.00;1.30;;;;;;;;;;5051809;28;20021;-53
2021/08/01 04:56:11;;;;;;;4.78;1.00;;;;;;;;;;5052801;28;20025;-52
2021/08/01 04:58:37;;;;;;;4.82;1.50;;;;;;;;;;5052540;28;20116;-52
2021/08/01 05:01:23;;;;;;;1.25;1.08;;;;;;;;;;5051691;28;20032;-52
2021/08/01 05:03:49;;;;;;;1.80;1.20;;;;;;;;;;5052849;28;20033;-52
2021/08/01 05:06:15;;;;;;;1.52;1.23;;;;;;;;;;5052045;28;20029;-52
2021/08/01 05:08:41;;;;;;;1.05;0.95;;;;;;;;;;5052135;28;20125;-52
2021/08/01 05:11:07;;;;;;;4.55;1.63;;;;;;;;;;5051494;28;20087;-52
2021/08/01 05:13:34;;;;;;;1.73;1.50;;;;;;;;;;5052153;28;20469;-52
2021/08/01 05:16:00;;;;;;;2.42;1.20;;;;;;;;;;5052554;28;20028;-52
2021/08/01 05:18:26;;;;;;;2.25;1.30;;;;;;;;;;5052326;28;20086;-52
2021/08/01 05:20:52;;;;;;;1.77;1.00;;;;;;;;;;5051016;28;20116;-52
2021/08/01 05:23:18;;;;;;;2.13;0.95;;;;;;;;;;5052753;28;20032;-52
2021/08/01 05:25:44;;;;;;;1.98;1.20;;;;;;;;;;5055994;28;20086;-52
2021/08/01 05:28:10;;;;;;;3.13;1.30;;;;;;;;;;5055503;28;20069;-52
2021/08/01 05:30:36;;;;;;;1.52;1.15;;;;;;;;;;5055472;28;20021;-52
2021/08/01 05:33:09;;;;;;;2.15;1.20;;;;;;;;;;5055541;28;20457;-53
2021/08/01 05:35:36;;;;;;;1.25;1.02;;;;;;;;;;5055716;28;20410;-52
2021/08/01 05:38:02;;;;;;;2.83;1.17;;;;;;;;;;5064116;28;20040;-52
2021/08/01 05:40:28;;;;;;;2.25;1.17;;;;;;;;;;5064859;28;20020;-52
2021/08/01 05:42:54;;;;;;;2.30;1.05;;;;;;;;;;5065226;28;20024;-53
2021/08/01 05:45:20;;;;;;;1.17;1.08;;;;;;;;;;5064035;28;20021;-52
2021/08/01 05:47:46;;;;;;;1.60;1.20;;;;;;;;;;5064865;28;20473;-52
2021/08/01 05:50:12;;;;;;;1.13;0.98;;;;;;;;;;5065365;28;20029;-53
2021/08/01 05:52:38;;;;;;;1.25;0.98;;;;;;;;;;5063221;28;20568;-52
2021/08/01 05:55:04;;;;;;;1.52;1.27;;;;;;;;;;5065420;28;20047;-53
2021/08/01 05:57:30;;;;;;;1.55;1.17;;;;;;;;;;5064640;28;20025;-52
2021/08/01 05:59:56;;;;;;;1.75;1.40;;;;;;;;;;5058490;28;20355;-53
2021/08/01 06:02:22;;;;;;;2.65;1.30;;;;;;;;;;5054046;28;20021;-52
2021/08/01 06:04:50;;;;;;;7.15;1.60;;;;;;;;;;5059780;28;20025;-52
2021/08/01 06:07:16;;;;;;;1.48;1.25;;;;;;;;;;5055273;28;20032;-53
2021/08/01 06:09:43;;;;;;;2.05;1.50;;;;;;;;;;5055006;28;20398;-52
2021/08/01 06:12:12;;;;;;;3.00;1.52;;;;;;;;;;5054171;28;20083;-52
2021/08/01 06:14:38;;;;;;;1.67;1.02;;;;;;;;;;5054984;28;20025;-53
2021/08/01 06:17:04;;;;;;;2.05;1.42;;;;;;;;;;5054428;28;20025;-52
2021/08/01 06:19:30;;;;;;;2.67;1.30;;;;;;;;;;5055189;28;20027;-52
2021/08/01 06:21:56;;;;;;;3.53;1.60;;;;;;;;;;5054005;28;20426;-52
2021/08/01 06:24:22;;;;;;;4.43;1.67;;;;;;;;;;5053967;28;20025;-53
2021/08/01 06:26:48;;;;;;;2.33;1.63;;;;;;;;;;5054616;28;20078;-52
2021/08/01 06:29:16;;;;;;;1.67;1.30;;;;;;;;;;5054311;28;20033;-52
2021/08/01 06:31:42;;;;;;;1.30;1.20;;;;;;;;;;5053834;28;20035;-52
2021/08/01 06:34:08;;;;;;;3.55;2.00;;;;;;;;;;5054335;28;20086;-52
2021/08/01 06:36:34;;;;;;;1.85;1.48;;;;;;;;;;5054389;28;20033;-52
2021/08/01 06:39:00;;;;;;;1.60;1.30;;;;;;;;;;5054443;28;20041;-52
2021/08/01 06:41:26;;;;;;;1.75;1.30;;;;;;;;;;5053811;28;20104;-53
2021/08/01 06:43:52;;;;;;;2.65;1.75;;;;;;;;;;5054792;28;20580;-52
2021/08/01 06:46:18;;;;;;;5.65;1.55;;;;;;;;;;5054060;28;20040;-52
2021/08/01 06:48:44;;;;;;;1.55;1.20;;;;;;;;;;5054034;28;20111;-52
2021/08/01 06:51:10;;;;;;;2.88;1.13;;;;;;;;;;5053883;28;20159;-53
2021/08/01 06:53:36;;;;;;;2.13;1.50;;;;;;;;;;5054039;28;20024;-52
2021/08/01 06:56:02;;;;;;;2.95;1.42;;;;;;;;;;5054123;28;20052;-53
2021/08/01 06:58:28;;;;;;;4.07;1.70;;;;;;;;;;5054436;28;20037;-53
2021/08/01 07:00:54;;;;;;;2.20;1.67;;;;;;;;;;5052863;28;20028;-53
2021/08/01 07:03:20;;;;;;;2.63;1.60;;;;;;;;;;5054039;28;20032;-52
2021/08/01 07:05:46;;;;;;;6.90;2.13;;;;;;;;;;5053728;28;20104;-53
2021/08/01 07:08:12;;;;;;;2.42;1.55;;;;;;;;;;5053894;28;20119;-53
2021/08/01 07:10:38;;;;;;;2.88;1.20;;;;;;;;;;5053010;28;20119;-53
2021/08/01 07:13:07;;;;;;;2.40;1.50;;;;;;;;;;5053565;28;20447;-52
2021/08/01 07:15:34;;;;;;;2.33;1.20;;;;;;;;;;5053541;28;20033;-52
2021/08/01 07:18:00;;;;;;;4.57;1.58;;;;;;;;;;5053026;28;20298;-53
2021/08/01 07:20:27;;;;;;;1.92;1.30;;;;;;;;;;5053384;28;20116;-53
2021/08/01 07:22:53;;;;;;;2.80;1.40;;;;;;;;;;5052759;28;20037;-53
2021/08/01 07:25:20;;;;;;;3.38;2.00;;;;;;;;;;5053524;28;20025;-52
2021/08/01 07:27:46;;;;;;;2.45;1.45;;;;;;;;;;5053554;28;20021;-53
2021/08/01 07:30:13;;;;;;;4.80;1.50;;;;;;;;;;5055272;28;20028;-52
2021/08/01 07:32:39;;;;;;;2.08;1.48;;;;;;;;;;5068813;28;20052;-53
2021/08/01 07:35:05;;;;;;;3.08;1.38;;;;;;;;;;5063645;28;20183;-53
2021/08/01 07:37:31;;;;;;;5.28;1.20;;;;;;;;;;5061737;28;20052;-52
2021/08/01 07:39:57;;;;;;;2.20;1.42;;;;;;;;;;5062495;28;20027;-53
2021/08/01 07:42:23;;;;;;;3.20;1.08;;;;;;;;;;5061713;28;20049;-52
2021/08/01 07:44:55;;;;;;;2.97;1.80;;;;;;;;;;5060784;28;20100;-53
2021/08/01 07:47:22;;;;;;;2.35;1.23;;;;;;;;;;5053841;28;20028;-54
2021/08/01 07:49:49;;;;;;;9.95;1.27;;;;;;;;;;5052019;28;20036;-53
2021/08/01 07:52:15;;;;;;;1.55;1.45;;;;;;;;;;5052460;28;20063;-53
2021/08/01 07:54:41;;;;;;;2.08;1.48;;;;;;;;;;5051944;28;20028;-53
2021/08/01 07:57:08;;;;;;;2.55;1.30;;;;;;;;;;5052209;28;20021;-52
2021/08/01 07:59:34;;;;;;;2.45;1.33;;;;;;;;;;5053089;28;20174;-53
2021/08/01 08:02:00;;;;;;;3.67;1.73;;;;;;;;;;5052043;28;20445;-53
2021/08/01 08:04:26;;;;;;;6.22;1.75;;;;;;;;;;5057934;28;20350;-53
2021/08/01 08:06:52;;;;;;;6.47;2.00;;;;;;;;;;5072935;28;20021;-52
2021/08/01 08:09:21;;;;;;;3.80;1.40;;;;;;;;;;5072680;28;20025;-52
2021/08/01 08:11:48;;;;;;;4.03;1.65;;;;;;;;;;5071651;28;20480;-52
2021/08/01 08:14:14;;;;;;;3.03;1.60;;;;;;;;;;5071371;28;20060;-52
2021/08/01 08:16:40;;;;;;;5.00;1.90;;;;;;;;;;5072817;28;20047;-53
2021/08/01 08:19:06;;;;;;;6.15;1.48;;;;;;;;;;5072911;28;20059;-52
2021/08/01 08:21:32;;;;;;;2.67;1.58;;;;;;;;;;5071752;28;20032;-53
2021/08/01 08:23:58;;;;;;;2.53;1.55;;;;;;;;;;5072302;28;20108;-52
2021/08/01 08:26:24;;;;;;;2.35;1.55;;;;;;;;;;5071251;28;20401;-52
2021/08/01 08:28:50;;;;;;;2.60;1.55;;;;;;;;;;5072910;28;20059;-52
2021/08/01 08:31:16;;;;;;;2.28;1.73;;;;;;;;;;5071869;28;20024;-52
2021/08/01 08:33:43;;;;;;;2.58;1.80;;;;;;;;;;5072483;28;20473;-52
2021/08/01 08:36:09;;;;;;;2.47;1.92;;;;;;;;;;5055160;28;20021;-52
2021/08/01 08:38:34;;;;;;;2.58;1.90;;;;;;;;;;5057152;28;20335;-52
2021/08/01 08:41:00;;;;;;;2.17;1.80;;;;;;;;;;5071662;28;20032;-52
2021/08/01 08:43:26;;;;;;;3.70;2.28;;;;;;;;;;5072459;28;20020;-52
2021/08/01 08:45:52;;;;;;;1.95;1.75;;;;;;;;;;5072685;28;20048;-52
2021/08/01 08:48:19;;;;;;;5.20;2.35;;;;;;;;;;5072266;28;20104;-52
2021/08/01 08:50:49;;;;;;;4.60;2.22;;;;;;;;;;5071268;28;20418;-52
2021/08/01 08:53:15;;;;;;;4.15;2.50;;;;;;;;;;5072195;28;20044;-52
2021/08/01 08:55:41;;;;;;;4.40;2.28;;;;;;;;;;5071684;28;20451;-52
2021/08/01 08:58:08;;;;;;;2.45;2.00;;;;;;;;;;5069983;28;20029;-52
2021/08/01 09:00:34;;;;;;;9.55;1.92;;;;;;;;;;5075209;28;20473;-52
2021/08/01 09:03:00;;;;;;;6.63;2.40;;;;;;;;;;5058817;28;20021;-52
2021/08/01 09:05:26;;;;;;;2.63;1.75;;;;;;;;;;5057255;28;20354;-53
2021/08/01 09:07:52;;;;;;;3.28;1.85;;;;;;;;;;5075484;28;20028;-52
2021/08/01 09:10:19;;;;;;;3.42;2.45;;;;;;;;;;5067473;28;20013;-52
2021/08/01 09:12:46;;;;;;;3.75;2.58;;;;;;;;;;5064948;28;20095;-53
2021/08/01 09:15:15;;;;;;;3.78;2.33;;;;;;;;;;5065315;28;20028;-52
2021/08/01 09:17:42;;;;;;;3.17;2.88;;;;;;;;;;5063930;28;20607;-52
2021/08/01 09:20:12;;;;;;;3.58;2.25;;;;;;;;;;5064867;28;20455;-53
2021/08/01 09:22:38;;;;;;;3.63;2.33;;;;;;;;;;5064848;28;20037;-52
2021/08/01 09:25:15;;;;;;;5.68;2.45;;;;;;;;;;5066003;28;20070;-53
2021/08/01 09:27:41;;;;;;;3.22;2.00;;;;;;;;;;5065161;28;20017;-52
2021/08/01 09:30:07;;;;;;;3.28;2.47;;;;;;;;;;5065207;28;20094;-53
2021/08/01 09:32:46;;;;;;;2.97;2.08;;;;;;;;;;5065259;28;20435;-53
2021/08/01 09:35:21;;;;;;;3.90;2.50;;;;;;;;;;5066423;28;20036;-52
2021/08/01 09:37:55;;;;;;;5.25;2.70;;;;;;;;;;5066121;28;20032;-52
2021/08/01 09:40:21;;;;;;;3.55;2.47;;;;;;;;;;5067020;28;20111;-53
2021/08/01 09:42:47;;;;;;;7.03;3.25;;;;;;;;;;5063428;28;20116;-52
2021/08/01 09:45:20;;;;;;;5.35;2.97;;;;;;;;;;5066581;28;20020;-52
2021/08/01 09:47:47;;;;;;;4.47;2.50;;;;;;;;;;5065669;28;20035;-52
2021/08/01 09:50:14;;;;;;;4.22;2.63;;;;;;;;;;5066190;28;20060;-52
2021/08/01 09:52:41;;;;;;;7.00;3.08;;;;;;;;;;5063190;28;20033;-52
2021/08/01 09:55:15;;;;;;;3.60;2.80;;;;;;;;;;5065167;28;20414;-52
2021/08/01 09:57:48;;;;;;;5.97;2.72;;;;;;;;;;5065339;28;20025;-52
2021/08/01 10:00:14;;;;;;;4.55;2.90;;;;;;;;;;5064434;28;20028;-53
2021/08/01 10:02:40;;;;;;;3.83;2.50;;;;;;;;;;5062709;28;20108;-52
2021/08/01 10:05:20;;;;;;;2.80;2.30;;;;;;;;;;5063971;28;20058;-52
2021/08/01 10:07:47;;;;;;;6.13;3.08;;;;;;;;;;5063175;28;20028;-52
2021/08/01 10:10:17;;;;;;;5.15;3.22;;;;;;;;;;5064464;28;20032;-52
2021/08/01 10:12:47;;;;;;;4.32;2.88;;;;;;;;;;5064893;28;20059;-52
2021/08/01 10:15:13;;;;;;;5.00;2.70;;;;;;;;;;5065329;28;20029;-52
2021/08/01 10:17:39;;;;;;;6.25;3.10;;;;;;;;;;5074794;28;20401;-52
2021/08/01 10:20:06;;;;;;;4.85;3.33;;;;;;;;;;5063414;28;20454;-53
2021/08/01 10:22:33;;;;;;;6.65;2.95;;;;;;;;;;5064273;28;20032;-53
2021/08/01 10:25:01;;;;;;;4.97;3.38;;;;;;;;;;5063971;28;20116;-53
2021/08/01 10:27:27;;;;;;;3.45;2.63;;;;;;;;;;5062961;28;20029;-52
2021/08/01 10:29:54;;;;;;;5.68;3.45;;;;;;;;;;5065371;28;20032;-53
2021/08/01 10:32:21;;;;;;;4.10;3.10;;;;;;;;;;5063869;28;20025;-52
2021/08/01 10:34:48;;;;;;;7.75;3.63;;;;;;;;;;5062593;28;20013;-52
2021/08/01 10:37:24;;;;;;;4.50;2.90;;;;;;;;;;5061444;28;20028;-52
2021/08/01 10:39:50;;;;;;;6.25;2.92;;;;;;;;;;5063291;28;20024;-53
2021/08/01 10:42:17;;;;;;;5.50;3.33;;;;;;;;;;5064305;28;20108;-52
2021/08/01 10:44:44;;;;;;;6.75;4.53;;;;;;;;;;5066949;28;20056;-52
2021/08/01 10:47:10;;;;;;;6.32;3.70;;;;;;;;;;5074270;28;20549;-51
2021/08/01 10:49:40;;;;;;;8.43;3.40;;;;;;;;;;5070007;28;20112;-51
2021/08/01 10:52:10;;;;;;;5.40;3.40;;;;;;;;;;5073429;28;20366;-51
2021/08/01 10:54:37;;;;;;;4.72;3.03;;;;;;;;;;5074240;28;20055;-51
2021/08/01 10:57:32;;;;;;;6.35;3.60;;;;;;;;;;5074437;28;20028;-51
2021/08/01 11:00:00;;;;;;;6.53;3.00;;;;;;;;;;5068898;28;20040;-51
2021/08/01 11:02:27;;;;;;;4.38;2.85;;;;;;;;;;5073596;28;20396;-51
2021/08/01 11:04:53;;;;;;;3.88;2.67;;;;;;;;;;5073592;28;20056;-51
2021/08/01 11:07:28;;;;;;;4.68;2.80;;;;;;;;;;5073860;28;20162;-51
2021/08/01 11:10:10;;;;;;;2.60;2.03;;;;;;;;;;5074246;28;20016;-51
2021/08/01 11:12:42;;;;;;;8.73;2.20;;;;;;;;;;5072598;28;20408;-51
2021/08/01 11:15:10;;;;;;;3.10;2.80;;;;;;;;;;5073926;28;20104;-51
2021/08/01 11:17:42;;;;;;;3.38;2.25;;;;;;;;;;5073576;28;20031;-51
2021/08/01 11:20:23;;;;;;;3.10;2.45;;;;;;;;;;5073375;28;20476;-51
2021/08/01 11:22:49;;;;;;;3.50;2.53;;;;;;;;;;5072053;28;20029;-51
2021/08/01 11:25:28;;;;;;;2.22;1.95;;;;;;;;;;5073489;28;20472;-51
2021/08/01 11:30:53;;;;;;;3.42;2.38;;;;;;;;;;5070448;28;20039;-51
2021/08/01 11:33:34;;;;;;;4.38;2.58;;;;;;;;;;5072634;28;20442;-51
2021/08/01 11:36:19;;;;;;;3.65;1.80;;;;;;;;;;5056841;28;20115;-51
2021/08/01 11:38:51;;;;;;;2.85;2.05;;;;;;;;;;5053355;28;20378;-51
2021/08/01 11:41:43;;;;;;;3.40;2.30;;;;;;;;;;5052521;28;20025;-50
2021/08/01 11:44:23;;;;;;;5.72;2.30;;;;;;;;;;5052082;28;20043;-51
2021/08/01 11:46:54;;;;;;;6.50;2.75;;;;;;;;;;5053121;28;20032;-51
2021/08/01 11:49:22;;;;;;;3.22;2.20;;;;;;;;;;5053391;28;20036;-51
2021/08/01 11:51:48;;;;;;;3.92;2.00;;;;;;;;;;5051981;28;20398;-51
2021/08/01 11:54:14;;;;;;;4.00;2.25;;;;;;;;;;5052665;28;20029;-51
2021/08/01 11:56:41;;;;;;;5.25;2.63;;;;;;;;;;5053131;28;20025;-51
2021/08/01 11:59:13;;;;;;;3.67;2.60;;;;;;;;;;5052804;28;20078;-51
2021/08/01 12:01:40;;;;;;;4.18;2.22;;;;;;;;;;5052376;28;20131;-51
2021/08/01 12:04:10;;;;;;;5.88;1.95;;;;;;;;;;5052621;28;20108;-50
2021/08/01 12:06:37;;;;;;;2.15;1.75;;;;;;;;;;5052556;28;20021;-51
2021/08/01 12:09:19;;;;;;;2.78;2.13;;;;;;;;;;5052743;28;20528;-50
2021/08/01 12:11:46;;;;;;;3.08;2.13;;;;;;;;;;5052269;28;20052;-51
2021/08/01 12:14:13;;;;;;;2.38;1.67;;;;;;;;;;5052840;28;20350;-52
2021/08/01 12:16:51;;;;;;;4.10;2.08;;;;;;;;;;5052976;28;20100;-51
2021/08/01 12:19:18;;;;;;;0.93;0.93;;;;;;;;;;5052170;28;20079;-51
2021/08/01 12:21:45;;;;;;;1.83;1.40;;;;;;;;;;5051730;28;20124;-50
2021/08/01 12:24:30;;;;;;;4.00;1.90;;;;;;;;;;5052241;28;20032;-51
2021/08/01 12:27:03;;;;;;;3.38;1.90;;;;;;;;;;5052846;28;20509;-50
2021/08/01 12:29:36;;;;;;;5.80;2.13;;;;;;;;;;5052245;28;20025;-51
2021/08/01 12:32:16;;;;;;;3.53;2.20;;;;;;;;;;5052498;28;20777;-51
2021/08/01 12:34:42;;;;;;;2.97;1.88;;;;;;;;;;5067559;28;20023;-51
2021/08/01 12:37:08;;;;;;;9.10;1.80;;;;;;;;;;5066830;28;20031;-51
2021/08/01 12:39:42;;;;;;;1.67;1.48;;;;;;;;;;5067639;28;20036;-51
2021/08/01 12:42:08;;;;;;;2.78;1.55;;;;;;;;;;5065275;28;20013;-51
2021/08/01 12:44:34;;;;;;;2.03;1.73;;;;;;;;;;5065835;28;20020;-51
2021/08/01 12:47:06;;;;;;;3.25;1.73;;;;;;;;;;5065053;28;20074;-51
2021/08/01 12:49:33;;;;;;;3.55;1.70;;;;;;;;;;5066319;28;20021;-51
2021/08/01 12:51:59;;;;;;;3.97;1.95;;;;;;;;;;5064548;28;20021;-52
2021/08/01 12:54:25;;;;;;;2.47;1.92;;;;;;;;;;5066581;28;20081;-52
2021/08/01 12:57:10;;;;;;;2.65;1.75;;;;;;;;;;5065841;28;20017;-52
2021/08/01 12:59:37;;;;;;;2.53;1.75;;;;;;;;;;5066500;28;20293;-52
2021/08/01 13:02:03;;;;;;;3.33;1.92;;;;;;;;;;5064844;28;20028;-52
2021/08/01 13:04:59;;;;;;;3.38;1.85;;;;;;;;;;5067119;28;20036;-52
2021/08/01 13:07:25;;;;;;;2.00;1.75;;;;;;;;;;5061488;28;20040;-52
2021/08/01 13:10:00;;;;;;;1.77;1.45;;;;;;;;;;5062035;28;20025;-52
2021/08/01 13:12:26;;;;;;;1.70;1.60;;;;;;;;;;5060923;28;20048;-52
2021/08/01 13:14:52;;;;;;;5.13;1.83;;;;;;;;;;5058068;28;22794;-52
2021/08/01 13:17:19;;;;;;;2.92;2.05;;;;;;;;;;5060295;28;20056;-52
2021/08/01 13:19:45;;;;;;;1.88;1.70;;;;;;;;;;5066464;28;20162;-52
2021/08/01 13:22:18;;;;;;;3.03;1.50;;;;;;;;;;5061668;28;20123;-52
2021/08/01 13:24:44;;;;;;;4.32;2.50;;;;;;;;;;5054360;28;20112;-52
2021/08/01 13:27:12;;;;;;;3.55;1.70;;;;;;;;;;5056380;28;20321;-52
2021/08/01 13:29:38;;;;;;;3.40;2.13;;;;;;;;;;5067586;28;20029;-52
2021/08/01 13:32:05;;;;;;;2.25;1.42;;;;;;;;;;5050784;28;20120;-52
2021/08/01 13:34:58;;;;;;;1.90;1.67;;;;;;;;;;5056841;28;20071;-52
2021/08/01 13:37:26;;;;;;;2.83;1.52;;;;;;;;;;5070128;28;20129;-52
2021/08/01 13:39:56;;;;;;;3.00;1.83;;;;;;;;;;5072705;28;20024;-52
2021/08/01 13:42:35;;;;;;;2.97;1.90;;;;;;;;;;5071809;28;20056;-52
2021/08/01 13:45:01;;;;;;;6.50;2.05;;;;;;;;;;5074480;28;20532;-52
2021/08/01 13:47:34;;;;;;;2.15;1.67;;;;;;;;;;5074882;28;20111;-52
2021/08/01 13:50:02;;;;;;;1.75;1.63;;;;;;;;;;5070989;28;20032;-52
2021/08/01 13:52:31;;;;;;;2.47;1.42;;;;;;;;;;5074711;28;20016;-52
2021/08/01 13:54:57;;;;;;;4.75;1.80;;;;;;;;;;5074951;28;20358;-52
2021/08/01 13:57:23;;;;;;;4.18;1.73;;;;;;;;;;5075235;28;20105;-52
2021/08/01 13:59:50;;;;;;;2.45;1.80;;;;;;;;;;5075098;28;20075;-52
2021/08/01 14:02:16;;;;;;;2.38;1.27;;;;;;;;;;5068715;28;20024;-53
2021/08/01 14:04:42;;;;;;;2.90;1.88;;;;;;;;;;5064192;28;20478;-52
2021/08/01 14:07:08;;;;;;;1.67;1.42;;;;;;;;;;5069339;28;20034;-52
2021/08/01 14:09:34;;;;;;;1.40;1.30;;;;;;;;;;5074339;28;20035;-52
2021/08/01 14:12:00;;;;;;;2.80;2.03;;;;;;;;;;5063732;28;20075;-52
2021/08/01 14:14:27;;;;;;;1.90;1.73;;;;;;;;;;5067133;28;20024;-52
2021/08/01 14:16:52;;;;;;;1.50;1.30;;;;;;;;;;5065909;28;20021;-52
2021/08/01 14:19:18;;;;;;;2.13;1.40;;;;;;;;;;5068134;28;20039;-52
2021/08/01 14:21:45;;;;;;;2.72;1.65;;;;;;;;;;5065162;28;20056;-52
2021/08/01 14:24:11;;;;;;;2.10;1.42;;;;;;;;;;5064972;28;20077;-52
2021/08/01 14:26:38;;;;;;;1.88;1.25;;;;;;;;;;5063922;28;20024;-52
2021/08/01 14:29:04;;;;;;;1.98;1.20;;;;;;;;;;5064332;28;20442;-52
2021/08/01 14:31:31;;;;;;;3.78;1.35;;;;;;;;;;5063128;28;20103;-52
2021/08/01 14:34:01;;;;;;;1.52;1.35;;;;;;;;;;5063916;28;20021;-52
2021/08/01 14:36:33;;;;;;;2.00;1.52;;;;;;;;;;5064534;28;20087;-52
2021/08/01 14:39:01;;;;;;;1.85;1.50;;;;;;;;;;5064061;28;20037;-52
2021/08/01 14:41:27;;;;;;;1.98;1.60;;;;;;;;;;5064197;28;20155;-52
2021/08/01 14:43:53;;;;;;;1.95;1.30;;;;;;;;;;5063567;28;20107;-52
2021/08/01 14:46:20;;;;;;;2.42;1.48;;;;;;;;;;5064853;28;20249;-52
2021/08/01 14:48:46;;;;;;;1.42;1.27;;;;;;;;;;5063663;28;20323;-52
2021/08/01 14:53:58;;;;;;;6.03;1.65;;;;;;;;;;5064553;28;20408;-52